Time,TemperatureF,DewpointF,PressureIn,WindDirection,WindDirectionDegrees,WindSpeedMPH,WindSpeedGustMPH,Humidity,HourlyPrecipIn,Conditions,Clouds,dailyrainin,SolarRadiationWatts/m^2,SoftwareType,DateUTC
2013-11-07 00:01:00,64.9,14.6,30.15,ESE,119,8.0,14.0,14,0.00,,,0.00,0,WeatherCatV1.11B39,2013-11-07 07:01:00,
2013-11-07 00:06:00,64.4,14.2,30.15,ESE,117,6.0,6.0,14,0.00,,,0.00,0,WeatherCatV1.11B39,2013-11-07 07:06:00,
2013-11-07 00:11:00,63.9,15.4,30.14,SE,139,5.0,14.0,15,0.00,,,0.00,0,WeatherCatV1.11B39,2013-11-07 07:11:00,
2013-11-07 00:16:00,63.9,15.4,30.15,SE,132,8.0,14.0,15,0.00,,,0.00,0,WeatherCatV1.11B39,2013-11-07 07:16:00,
2013-11-07 00:21:00,64.0,13.9,30.14,East,92,9.0,20.0,14,0.00,,,0.00,0,WeatherCatV1.11B39,2013-11-07 07:21:00,
2013-11-07 00:26:00,64.0,13.9,30.15,ESE,110,8.0,9.0,14,0.00,,,0.00,0,WeatherCatV1.11B39,2013-11-07 07:26:00,
2013-11-07 00:31:00,64.3,10.6,30.14,SE,146,1.0,11.0,12,0.00,,,0.00,0,WeatherCatV1.11B39,2013-11-07 07:31:00,
2013-11-07 00:36:00,64.5,8.8,30.15,SE,132,2.0,6.0,11,0.00,,,0.00,0,WeatherCatV1.11B39,2013-11-07 07:36:00,
2013-11-07 00:41:00,64.7,9.0,30.14,East,91,4.0,9.0,11,0.00,,,0.00,0,WeatherCatV1.11B39,2013-11-07 07:41:00,
2013-11-07 00:46:00,64.9,7.0,30.14,SE,132,8.0,13.0,10,0.00,,,0.00,0,WeatherCatV1.11B39,2013-11-07 07:46:00,
2013-11-07 00:51:00,65.1,4.9,30.14,ESE,107,11.0,13.0,9,0.00,,,0.00,0,WeatherCatV1.11B39,2013-11-07 07:51:00,
2013-11-07 00:56:00,64.7,10.9,30.14,SE,145,8.0,12.0,12,0.00,,,0.00,0,WeatherCatV1.11B39,2013-11-07 07:56:00,
2013-11-07 01:01:00,63.9,10.3,30.14,ESE,112,5.0,9.0,12,0.00,,,0.00,0,WeatherCatV1.11B39,2013-11-07 08:01:00,
2013-11-07 01:06:00,63.8,10.2,30.14,ESE,117,5.0,6.0,12,0.00,,,0.00,0,WeatherCatV1.11B39,2013-11-07 08:06:00,
2013-11-07 01:11:00,63.5,10.0,30.13,SE,128,8.0,8.0,12,0.00,,,0.00,0,WeatherCatV1.11B39,2013-11-07 08:11:00,
2013-11-07 01:16:00,63.1,9.7,30.14,ENE,75,7.0,8.0,12,0.00,,,0.00,0,WeatherCatV1.11B39,2013-11-07 08:16:00,
2013-11-07 01:21:00,63.5,3.7,30.14,ESE,103,10.0,16.0,9,0.00,,,0.00,0,WeatherCatV1.11B39,2013-11-07 08:21:00,
2013-11-07 01:26:00,64.6,2.0,30.14,East,87,8.0,16.0,8,0.00,,,0.00,0,WeatherCatV1.11B39,2013-11-07 08:26:00,
2013-11-07 01:31:00,64.8,7.0,30.14,SE,134,2.0,11.0,10,0.00,,,0.00,0,WeatherCatV1.11B39,2013-11-07 08:31:00,
2013-11-07 01:36:00,64.4,8.8,30.14,SE,145,5.0,10.0,11,0.00,,,0.00,0,WeatherCatV1.11B39,2013-11-07 08:36:00,
2013-11-07 01:41:00,64.1,6.4,30.14,East,97,11.0,12.0,10,0.00,,,0.00,0,WeatherCatV1.11B39,2013-11-07 08:41:00,
2013-11-07 01:46:00,63.6,10.1,30.14,SE,136,6.0,11.0,12,0.00,,,0.00,0,WeatherCatV1.11B39,2013-11-07 08:46:00,
2013-11-07 01:51:00,63.4,5.9,30.13,SE,133,7.0,12.0,10,0.00,,,0.00,0,WeatherCatV1.11B39,2013-11-07 08:51:00,
2013-11-07 01:56:00,63.1,7.8,30.13,East,86,13.0,15.0,11,0.00,,,0.00,0,WeatherCatV1.11B39,2013-11-07 08:56:00,
2013-11-07 02:01:00,63.4,3.6,30.13,ESE,121,5.0,10.0,9,0.00,,,0.00,0,WeatherCatV1.11B39,2013-11-07 09:01:00,
2013-11-07 02:06:00,64.2,1.7,30.13,East,91,9.0,24.0,8,0.00,,,0.00,0,WeatherCatV1.11B39,2013-11-07 09:06:00,
2013-11-07 02:11:00,64.9,2.2,30.13,East,94,11.0,11.0,8,0.00,,,0.00,0,WeatherCatV1.11B39,2013-11-07 09:11:00,
2013-11-07 02:16:00,65.3,-0.3,30.13,ESE,112,7.0,13.0,7,0.00,,,0.00,0,WeatherCatV1.11B39,2013-11-07 09:16:00,
2013-11-07 02:21:00,65.4,-0.3,30.13,SE,129,7.0,13.0,7,0.00,,,0.00,0,WeatherCatV1.11B39,2013-11-07 09:21:00,
2013-11-07 02:26:00,65.7,0.0,30.13,ESE,112,10.0,18.0,7,0.00,,,0.00,0,WeatherCatV1.11B39,2013-11-07 09:26:00,
2013-11-07 02:31:00,65.7,0.0,30.13,East,96,2.0,12.0,7,0.00,,,0.00,0,WeatherCatV1.11B39,2013-11-07 09:31:00,
2013-11-07 02:36:00,65.6,-0.1,30.13,SE,143,7.0,12.0,7,0.00,,,0.00,0,WeatherCatV1.11B39,2013-11-07 09:36:00,
2013-11-07 02:41:00,64.8,2.1,30.12,SE,137,6.0,9.0,8,0.00,,,0.00,0,WeatherCatV1.11B39,2013-11-07 09:41:00,
2013-11-07 02:46:00,64.4,1.8,30.12,ESE,118,6.0,14.0,8,0.00,,,0.00,0,WeatherCatV1.11B39,2013-11-07 09:46:00,
2013-11-07 02:51:00,64.8,2.1,30.12,East,95,14.0,14.0,8,0.00,,,0.00,0,WeatherCatV1.11B39,2013-11-07 09:51:00,
2013-11-07 02:56:00,65.3,-0.3,30.12,East,101,8.0,16.0,7,0.00,,,0.00,0,WeatherCatV1.11B39,2013-11-07 09:56:00,
2013-11-07 03:01:00,65.2,-0.4,30.12,SE,125,5.0,7.0,7,0.00,,,0.00,0,WeatherCatV1.11B39,2013-11-07 10:01:00,
2013-11-07 03:06:00,65.2,-0.4,30.12,ENE,77,14.0,14.0,7,0.00,,,0.00,0,WeatherCatV1.11B39,2013-11-07 10:06:00,
2013-11-07 03:11:00,65.4,-3.5,30.12,SE,129,1.0,10.0,6,0.00,,,0.00,0,WeatherCatV1.11B39,2013-11-07 10:11:00,
2013-11-07 03:16:00,65.3,-3.6,30.12,SE,124,6.0,8.0,6,0.00,,,0.00,0,WeatherCatV1.11B39,2013-11-07 10:16:00,
2013-11-07 03:21:00,64.9,-0.6,30.12,East,90,10.0,10.0,7,0.00,,,0.00,0,WeatherCatV1.11B39,2013-11-07 10:21:00,
2013-11-07 03:26:00,64.9,-0.6,30.12,ESE,116,3.0,16.0,7,0.00,,,0.00,0,WeatherCatV1.11B39,2013-11-07 10:26:00,
2013-11-07 03:31:00,64.9,-0.6,30.11,SSE,159,9.0,14.0,7,0.00,,,0.00,0,WeatherCatV1.11B39,2013-11-07 10:31:00,
2013-11-07 03:36:00,64.6,2.0,30.12,SE,138,15.0,15.0,8,0.00,,,0.00,0,WeatherCatV1.11B39,2013-11-07 10:36:00,
2013-11-07 03:41:00,64.3,1.8,30.12,ESE,103,13.0,17.0,8,0.00,,,0.00,0,WeatherCatV1.11B39,2013-11-07 10:41:00,
2013-11-07 03:46:00,64.4,-1.0,30.12,SE,146,5.0,17.0,7,0.00,,,0.00,0,WeatherCatV1.11B39,2013-11-07 10:46:00,
2013-11-07 03:51:00,64.3,-1.1,30.12,SE,126,6.0,16.0,7,0.00,,,0.00,0,WeatherCatV1.11B39,2013-11-07 10:51:00,
2013-11-07 03:56:00,64.6,-0.9,30.12,ENE,78,2.0,23.0,7,0.00,,,0.00,0,WeatherCatV1.11B39,2013-11-07 10:56:00,
2013-11-07 04:01:00,64.8,-3.9,30.12,East,99,7.0,17.0,6,0.00,,,0.00,0,WeatherCatV1.11B39,2013-11-07 11:01:00,
2013-11-07 04:06:00,64.9,-3.9,30.12,East,89,10.0,16.0,6,0.00,,,0.00,0,WeatherCatV1.11B39,2013-11-07 11:06:00,
2013-11-07 04:11:00,64.7,-0.8,30.12,NE,47,16.0,21.0,7,0.00,,,0.00,0,WeatherCatV1.11B39,2013-11-07 11:11:00,
2013-11-07 04:16:00,64.8,-3.9,30.12,East,84,13.0,17.0,6,0.00,,,0.00,0,WeatherCatV1.11B39,2013-11-07 11:16:00,
2013-11-07 04:21:00,64.6,-4.1,30.13,SE,128,8.0,13.0,6,0.00,,,0.00,0,WeatherCatV1.11B39,2013-11-07 11:21:00,
2013-11-07 04:26:00,64.5,-4.2,30.12,ESE,114,6.0,16.0,6,0.00,,,0.00,0,WeatherCatV1.11B39,2013-11-07 11:26:00,
2013-11-07 04:31:00,64.6,-0.9,30.12,East,86,11.0,17.0,7,0.00,,,0.00,0,WeatherCatV1.11B39,2013-11-07 11:31:00,
2013-11-07 04:34:00,64.5,-0.9,30.13,East,85,7.0,18.0,7,0.00,,,0.00,0,WeatherCatV1.11B39,2013-11-07 11:34:00,
2013-11-07 04:39:00,64.5,-0.9,30.13,SSE,162,6.0,14.0,7,0.00,,,0.00,0,WeatherCatV1.11B39,2013-11-07 11:39:00,
2013-11-07 04:44:00,64.4,-1.0,30.13,SE,128,6.0,14.0,7,0.00,,,0.00,0,WeatherCatV1.11B39,2013-11-07 11:44:00,
2013-11-07 04:49:00,64.1,-1.2,30.13,SSE,157,2.0,10.0,7,0.00,,,0.00,0,WeatherCatV1.11B39,2013-11-07 11:49:00,
2013-11-07 04:54:00,63.8,-1.4,30.13,SE,138,4.0,13.0,7,0.00,,,0.00,0,WeatherCatV1.11B39,2013-11-07 11:54:00,
2013-11-07 04:59:00,63.7,-1.5,30.13,ESE,119,8.0,17.0,7,0.00,,,0.00,0,WeatherCatV1.11B39,2013-11-07 11:59:00,
2013-11-07 05:04:00,63.6,-1.6,30.13,ESE,106,5.0,8.0,7,0.00,,,0.00,0,WeatherCatV1.11B39,2013-11-07 12:04:00,
2013-11-07 05:09:00,63.5,-1.7,30.12,ESE,121,5.0,13.0,7,0.00,,,0.00,0,WeatherCatV1.11B39,2013-11-07 12:09:00,
2013-11-07 05:14:00,63.4,-1.7,30.12,ESE,111,9.0,16.0,7,0.00,,,0.00,0,WeatherCatV1.11B39,2013-11-07 12:14:00,
2013-11-07 05:19:00,63.4,-1.7,30.12,ESE,122,5.0,16.0,7,0.00,,,0.00,0,WeatherCatV1.11B39,2013-11-07 12:19:00,
2013-11-07 05:24:00,63.6,-1.6,30.13,ESE,102,12.0,13.0,7,0.00,,,0.00,0,WeatherCatV1.11B39,2013-11-07 12:24:00,
2013-11-07 05:29:00,63.5,-1.7,30.12,ESE,104,8.0,14.0,7,0.00,,,0.00,0,WeatherCatV1.11B39,2013-11-07 12:29:00,
2013-11-07 05:34:00,63.5,1.2,30.12,ESE,107,9.0,11.0,8,0.00,,,0.00,0,WeatherCatV1.11B39,2013-11-07 12:34:00,
2013-11-07 05:39:00,63.4,1.1,30.12,East,92,8.0,22.0,8,0.00,,,0.00,0,WeatherCatV1.11B39,2013-11-07 12:39:00,
2013-11-07 05:44:00,63.7,1.3,30.12,ESE,111,9.0,12.0,8,0.00,,,0.00,0,WeatherCatV1.11B39,2013-11-07 12:44:00,
2013-11-07 05:49:00,63.6,1.2,30.12,East,79,8.0,16.0,8,0.00,,,0.00,0,WeatherCatV1.11B39,2013-11-07 12:49:00,
2013-11-07 05:54:00,63.9,1.5,30.11,ENE,73,22.0,22.0,8,0.00,,,0.00,0,WeatherCatV1.11B39,2013-11-07 12:54:00,
2013-11-07 05:59:00,63.7,1.3,30.12,ESE,117,9.0,15.0,8,0.00,,,0.00,0,WeatherCatV1.11B39,2013-11-07 12:59:00,
2013-11-07 06:04:00,63.7,1.3,30.12,East,84,10.0,12.0,8,0.00,,,0.00,0,WeatherCatV1.11B39,2013-11-07 13:04:00,
2013-11-07 06:09:00,63.4,1.1,30.12,East,101,7.0,10.0,8,0.00,,,0.00,0,WeatherCatV1.11B39,2013-11-07 13:09:00,
2013-11-07 06:14:00,63.6,3.8,30.12,ESE,113,3.0,8.0,9,0.00,,,0.00,0,WeatherCatV1.11B39,2013-11-07 13:14:00,
2013-11-07 06:19:00,63.4,5.9,30.12,East,80,3.0,16.0,10,0.00,,,0.00,0,WeatherCatV1.11B39,2013-11-07 13:19:00,
2013-11-07 06:24:00,63.5,6.0,30.12,ESE,122,11.0,12.0,10,0.00,,,0.00,0,WeatherCatV1.11B39,2013-11-07 13:24:00,
2013-11-07 06:29:00,63.7,6.1,30.12,SSE,157,2.0,6.0,10,0.00,,,0.00,0,WeatherCatV1.11B39,2013-11-07 13:29:00,
2013-11-07 06:34:00,63.7,6.1,30.12,East,82,3.0,9.0,10,0.00,,,0.00,0,WeatherCatV1.11B39,2013-11-07 13:34:00,
2013-11-07 06:39:00,63.5,8.1,30.12,East,93,4.0,9.0,11,0.00,,,0.00,0,WeatherCatV1.11B39,2013-11-07 13:39:00,
2013-11-07 06:44:00,63.6,8.1,30.12,East,95,3.0,15.0,11,0.00,,,0.00,0,WeatherCatV1.11B39,2013-11-07 13:44:00,
2013-11-07 06:49:00,63.5,10.0,30.12,East,89,5.0,11.0,12,0.00,,,0.00,5,WeatherCatV1.11B39,2013-11-07 13:49:00,
2013-11-07 06:54:00,63.5,11.8,30.12,ESE,107,13.0,14.0,13,0.00,,,0.00,9,WeatherCatV1.11B39,2013-11-07 13:54:00,
2013-11-07 06:59:00,64.0,12.2,30.12,ENE,70,9.0,20.0,13,0.00,,,0.00,11,WeatherCatV1.11B39,2013-11-07 13:59:00,
2013-11-07 07:04:00,64.4,12.5,30.12,ESE,111,14.0,14.0,13,0.00,,,0.00,12,WeatherCatV1.11B39,2013-11-07 14:04:00,
2013-11-07 07:09:00,64.5,14.3,30.12,East,80,17.0,22.0,14,0.00,,,0.00,16,WeatherCatV1.11B39,2013-11-07 14:09:00,
2013-11-07 07:14:00,64.6,15.9,30.12,ESE,103,14.0,14.0,15,0.00,,,0.00,21,WeatherCatV1.11B39,2013-11-07 14:14:00,
2013-11-07 07:19:00,64.8,16.1,30.12,East,89,11.0,18.0,15,0.00,,,0.00,23,WeatherCatV1.11B39,2013-11-07 14:19:00,
2013-11-07 07:24:00,65.0,16.2,30.12,East,82,10.0,19.0,15,0.00,,,0.00,53,WeatherCatV1.11B39,2013-11-07 14:24:00,
2013-11-07 07:29:00,65.2,17.9,30.12,East,81,7.0,20.0,16,0.00,,,0.00,84,WeatherCatV1.11B39,2013-11-07 14:29:00,
2013-11-07 07:34:00,65.4,18.0,30.12,ENE,62,11.0,22.0,16,0.00,,,0.00,100,WeatherCatV1.11B39,2013-11-07 14:34:00,
2013-11-07 07:39:00,65.6,18.2,30.13,ESE,122,6.0,15.0,16,0.00,,,0.00,123,WeatherCatV1.11B39,2013-11-07 14:39:00,
2013-11-07 07:44:00,65.6,18.2,30.13,ESE,107,8.0,16.0,16,0.00,,,0.00,142,WeatherCatV1.11B39,2013-11-07 14:44:00,
2013-11-07 07:49:00,65.7,18.3,30.13,ENE,68,15.0,17.0,16,0.00,,,0.00,158,WeatherCatV1.11B39,2013-11-07 14:49:00,
2013-11-07 07:54:00,65.9,18.5,30.13,East,101,11.0,17.0,16,0.00,,,0.00,181,WeatherCatV1.11B39,2013-11-07 14:54:00,
2013-11-07 07:59:00,66.1,20.0,30.13,East,82,11.0,17.0,17,0.00,,,0.00,195,WeatherCatV1.11B39,2013-11-07 14:59:00,
2013-11-07 08:04:00,66.4,20.3,30.13,East,85,18.0,21.0,17,0.00,,,0.00,211,WeatherCatV1.11B39,2013-11-07 15:04:00,
2013-11-07 08:09:00,66.7,20.5,30.14,East,92,8.0,19.0,17,0.00,,,0.00,230,WeatherCatV1.11B39,2013-11-07 15:09:00,
2013-11-07 08:14:00,66.8,20.6,30.14,ESE,107,4.0,16.0,17,0.00,,,0.00,244,WeatherCatV1.11B39,2013-11-07 15:14:00,
2013-11-07 08:19:00,67.1,20.8,30.13,ENE,70,7.0,19.0,17,0.00,,,0.00,258,WeatherCatV1.11B39,2013-11-07 15:19:00,
2013-11-07 08:24:00,67.3,22.3,30.13,East,80,11.0,24.0,18,0.00,,,0.00,276,WeatherCatV1.11B39,2013-11-07 15:24:00,
2013-11-07 08:29:00,67.4,22.4,30.13,ENE,76,8.0,16.0,18,0.00,,,0.00,292,WeatherCatV1.11B39,2013-11-07 15:29:00,
2013-11-07 08:34:00,67.6,22.6,30.13,East,84,17.0,25.0,18,0.00,,,0.00,306,WeatherCatV1.11B39,2013-11-07 15:34:00,
2013-11-07 08:39:00,67.8,22.8,30.13,ENE,77,9.0,17.0,18,0.00,,,0.00,322,WeatherCatV1.11B39,2013-11-07 15:39:00,
2013-11-07 08:44:00,68.1,24.3,30.13,East,93,11.0,18.0,19,0.00,,,0.00,338,WeatherCatV1.11B39,2013-11-07 15:44:00,
2013-11-07 08:49:00,68.5,23.3,30.13,ESE,107,5.0,16.0,18,0.00,,,0.00,353,WeatherCatV1.11B39,2013-11-07 15:49:00,
2013-11-07 08:54:00,68.8,23.6,30.13,East,84,9.0,16.0,18,0.00,,,0.00,367,WeatherCatV1.11B39,2013-11-07 15:54:00,
2013-11-07 08:59:00,69.1,23.8,30.13,ESE,109,5.0,14.0,18,0.00,,,0.00,383,WeatherCatV1.11B39,2013-11-07 15:59:00,
2013-11-07 09:04:00,69.4,24.1,30.13,East,85,8.0,13.0,18,0.00,,,0.00,397,WeatherCatV1.11B39,2013-11-07 16:04:00,
2013-11-07 09:09:00,69.6,22.9,30.13,East,83,10.0,17.0,17,0.00,,,0.00,413,WeatherCatV1.11B39,2013-11-07 16:09:00,
2013-11-07 09:14:00,69.8,23.0,30.13,ESE,111,3.0,19.0,17,0.00,,,0.00,427,WeatherCatV1.11B39,2013-11-07 16:14:00,
2013-11-07 09:19:00,70.3,23.4,30.13,East,91,10.0,14.0,17,0.00,,,0.00,439,WeatherCatV1.11B39,2013-11-07 16:19:00,
2013-11-07 09:24:00,70.8,22.4,30.12,ENE,74,10.0,23.0,16,0.00,,,0.00,455,WeatherCatV1.11B39,2013-11-07 16:24:00,
2013-11-07 09:29:00,70.7,22.3,30.13,ENE,72,14.0,23.0,16,0.00,,,0.00,468,WeatherCatV1.11B39,2013-11-07 16:29:00,
2013-11-07 09:34:00,71.1,22.6,30.13,East,100,1.0,19.0,16,0.00,,,0.00,480,WeatherCatV1.11B39,2013-11-07 16:34:00,
2013-11-07 09:39:00,71.2,22.7,30.12,East,80,3.0,10.0,16,0.00,,,0.00,496,WeatherCatV1.11B39,2013-11-07 16:39:00,
2013-11-07 09:44:00,71.4,21.3,30.12,ENE,74,9.0,17.0,15,0.00,,,0.00,506,WeatherCatV1.11B39,2013-11-07 16:44:00,
2013-11-07 09:49:00,71.5,21.4,30.12,East,96,15.0,18.0,15,0.00,,,0.00,517,WeatherCatV1.11B39,2013-11-07 16:49:00,
2013-11-07 09:54:00,71.9,21.7,30.12,ENE,62,9.0,23.0,15,0.00,,,0.00,529,WeatherCatV1.11B39,2013-11-07 16:54:00,
2013-11-07 09:59:00,71.8,21.7,30.12,East,101,2.0,16.0,15,0.00,,,0.00,541,WeatherCatV1.11B39,2013-11-07 16:59:00,
2013-11-07 10:04:00,71.9,21.7,30.13,ESE,108,4.0,12.0,15,0.00,,,0.00,548,WeatherCatV1.11B39,2013-11-07 17:04:00,
2013-11-07 10:09:00,72.4,22.1,30.13,East,93,11.0,17.0,15,0.00,,,0.00,561,WeatherCatV1.11B39,2013-11-07 17:09:00,
2013-11-07 10:14:00,72.2,20.4,30.12,ENE,68,13.0,19.0,14,0.00,,,0.00,570,WeatherCatV1.11B39,2013-11-07 17:14:00,
2013-11-07 10:19:00,72.8,20.8,30.12,East,92,8.0,21.0,14,0.00,,,0.00,580,WeatherCatV1.11B39,2013-11-07 17:19:00,
2013-11-07 10:24:00,72.8,20.8,30.12,ENE,70,8.0,9.0,14,0.00,,,0.00,587,WeatherCatV1.11B39,2013-11-07 17:24:00,
2013-11-07 10:29:00,73.2,21.2,30.12,East,86,11.0,11.0,14,0.00,,,0.00,598,WeatherCatV1.11B39,2013-11-07 17:29:00,
2013-11-07 10:34:00,73.2,21.2,30.12,ENE,69,14.0,18.0,14,0.00,,,0.00,605,WeatherCatV1.11B39,2013-11-07 17:34:00,
2013-11-07 10:39:00,73.3,22.9,30.11,NE,52,9.0,27.0,15,0.00,,,0.00,615,WeatherCatV1.11B39,2013-11-07 17:39:00,
2013-11-07 10:44:00,73.7,23.2,30.11,East,93,4.0,15.0,15,0.00,,,0.00,622,WeatherCatV1.11B39,2013-11-07 17:44:00,
2013-11-07 10:49:00,73.7,23.2,30.11,ESE,107,10.0,18.0,15,0.00,,,0.00,628,WeatherCatV1.11B39,2013-11-07 17:49:00,
2013-11-07 10:54:00,74.0,23.4,30.11,ENE,68,10.0,17.0,15,0.00,,,0.00,636,WeatherCatV1.11B39,2013-11-07 17:54:00,
2013-11-07 10:58:00,74.1,23.5,30.11,East,96,14.0,18.0,15,0.00,,,0.00,640,WeatherCatV1.11B39,2013-11-07 17:58:00,
2013-11-07 11:03:00,74.2,23.6,30.11,ESE,118,5.0,13.0,15,0.00,,,0.00,645,WeatherCatV1.11B39,2013-11-07 18:03:00,
2013-11-07 11:08:00,74.1,23.5,30.11,East,95,9.0,19.0,15,0.00,,,0.00,649,WeatherCatV1.11B39,2013-11-07 18:08:00,
2013-11-07 11:13:00,74.7,24.0,30.10,ENE,60,12.0,16.0,15,0.00,,,0.00,654,WeatherCatV1.11B39,2013-11-07 18:13:00,
2013-11-07 11:18:00,74.6,23.9,30.10,ENE,63,14.0,17.0,15,0.00,,,0.00,659,WeatherCatV1.11B39,2013-11-07 18:18:00,
2013-11-07 11:23:00,75.1,24.3,30.09,ESE,105,9.0,18.0,15,0.00,,,0.00,664,WeatherCatV1.11B39,2013-11-07 18:23:00,
2013-11-07 11:28:00,75.6,24.7,30.09,ENE,66,17.0,17.0,15,0.00,,,0.00,668,WeatherCatV1.11B39,2013-11-07 18:28:00,
2013-11-07 11:33:00,75.9,24.9,30.09,East,82,10.0,16.0,15,0.00,,,0.00,670,WeatherCatV1.11B39,2013-11-07 18:33:00,
2013-11-07 11:38:00,75.8,24.9,30.09,ESE,102,13.0,15.0,15,0.00,,,0.00,673,WeatherCatV1.11B39,2013-11-07 18:38:00,
2013-11-07 11:43:00,76.3,23.6,30.08,East,89,15.0,17.0,14,0.00,,,0.00,677,WeatherCatV1.11B39,2013-11-07 18:43:00,
2013-11-07 11:48:00,76.0,23.4,30.08,ENE,74,11.0,16.0,14,0.00,,,0.00,677,WeatherCatV1.11B39,2013-11-07 18:48:00,
2013-11-07 11:53:00,76.2,25.2,30.08,East,80,10.0,14.0,15,0.00,,,0.00,680,WeatherCatV1.11B39,2013-11-07 18:53:00,
2013-11-07 11:58:00,76.4,25.3,30.07,ENE,78,6.0,15.0,15,0.00,,,0.00,680,WeatherCatV1.11B39,2013-11-07 18:58:00,
2013-11-07 12:03:00,76.9,25.7,30.07,East,82,8.0,13.0,15,0.00,,,0.00,682,WeatherCatV1.11B39,2013-11-07 19:03:00,
2013-11-07 12:08:00,77.5,24.5,30.07,East,80,10.0,16.0,14,0.00,,,0.00,680,WeatherCatV1.11B39,2013-11-07 19:08:00,
2013-11-07 12:13:00,77.9,24.9,30.07,ESE,105,14.0,15.0,14,0.00,,,0.00,682,WeatherCatV1.11B39,2013-11-07 19:13:00,
2013-11-07 12:18:00,77.6,24.6,30.06,East,100,13.0,13.0,14,0.00,,,0.00,682,WeatherCatV1.11B39,2013-11-07 19:18:00,
2013-11-07 12:23:00,77.9,24.9,30.05,East,99,13.0,14.0,14,0.00,,,0.00,682,WeatherCatV1.11B39,2013-11-07 19:23:00,
2013-11-07 12:28:00,77.7,24.7,30.05,East,95,3.0,15.0,14,0.00,,,0.00,680,WeatherCatV1.11B39,2013-11-07 19:28:00,
2013-11-07 12:33:00,78.0,24.9,30.04,ENE,72,7.0,16.0,14,0.00,,,0.00,680,WeatherCatV1.11B39,2013-11-07 19:33:00,
2013-11-07 12:38:00,78.4,25.3,30.04,ENE,74,13.0,16.0,14,0.00,,,0.00,677,WeatherCatV1.11B39,2013-11-07 19:38:00,
2013-11-07 12:43:00,78.6,25.4,30.03,ESE,115,9.0,22.0,14,0.00,,,0.00,673,WeatherCatV1.11B39,2013-11-07 19:43:00,
2013-11-07 12:48:00,78.0,24.9,30.03,East,95,11.0,20.0,14,0.00,,,0.00,673,WeatherCatV1.11B39,2013-11-07 19:48:00,
2013-11-07 12:53:00,78.2,25.1,30.02,East,91,9.0,16.0,14,0.00,,,0.00,668,WeatherCatV1.11B39,2013-11-07 19:53:00,
2013-11-07 12:58:00,78.3,25.2,30.02,East,95,7.0,9.0,14,0.00,,,0.00,663,WeatherCatV1.11B39,2013-11-07 19:58:00,
2013-11-07 13:03:00,79.0,24.0,30.02,ENE,65,4.0,13.0,13,0.00,,,0.00,659,WeatherCatV1.11B39,2013-11-07 20:03:00,
2013-11-07 13:08:00,78.7,25.5,30.02,ESE,108,9.0,18.0,14,0.00,,,0.00,652,WeatherCatV1.11B39,2013-11-07 20:08:00,
2013-11-07 13:13:00,79.0,24.0,30.01,ENE,62,8.0,13.0,13,0.00,,,0.00,650,WeatherCatV1.11B39,2013-11-07 20:13:00,
2013-11-07 13:18:00,79.1,24.0,30.01,ENE,76,5.0,13.0,13,0.00,,,0.00,642,WeatherCatV1.11B39,2013-11-07 20:18:00,
2013-11-07 13:23:00,78.9,23.9,30.00,ENE,62,14.0,15.0,13,0.00,,,0.00,636,WeatherCatV1.11B39,2013-11-07 20:23:00,
2013-11-07 13:28:00,79.8,24.6,30.00,ENE,67,8.0,11.0,13,0.00,,,0.00,629,WeatherCatV1.11B39,2013-11-07 20:28:00,
2013-11-07 13:33:00,79.9,24.7,30.00,ESE,118,7.0,10.0,13,0.00,,,0.00,622,WeatherCatV1.11B39,2013-11-07 20:33:00,
2013-11-07 13:38:00,79.6,24.4,30.00,ENE,62,7.0,9.0,13,0.00,,,0.00,613,WeatherCatV1.11B39,2013-11-07 20:38:00,
2013-11-07 13:43:00,79.8,24.6,30.00,East,96,5.0,10.0,13,0.00,,,0.00,606,WeatherCatV1.11B39,2013-11-07 20:43:00,
2013-11-07 13:48:00,80.3,25.0,30.00,ENE,72,8.0,10.0,13,0.00,,,0.00,599,WeatherCatV1.11B39,2013-11-07 20:48:00,
2013-11-07 13:53:00,80.4,25.0,29.99,ENE,76,11.0,14.0,13,0.00,,,0.00,587,WeatherCatV1.11B39,2013-11-07 20:53:00,
2013-11-07 13:58:00,80.9,25.4,29.99,NE,55,8.0,15.0,13,0.00,,,0.00,580,WeatherCatV1.11B39,2013-11-07 20:58:00,
2013-11-07 14:03:00,80.2,24.9,29.99,NE,49,12.0,15.0,13,0.00,,,0.00,573,WeatherCatV1.11B39,2013-11-07 21:03:00,
2013-11-07 14:08:00,80.3,25.0,29.98,NE,45,8.0,11.0,13,0.00,,,0.00,561,WeatherCatV1.11B39,2013-11-07 21:08:00,
2013-11-07 14:13:00,80.4,25.0,29.98,ESE,116,6.0,17.0,13,0.00,,,0.00,550,WeatherCatV1.11B39,2013-11-07 21:13:00,
2013-11-07 14:18:00,80.8,25.4,29.98,ENE,67,10.0,15.0,13,0.00,,,0.00,540,WeatherCatV1.11B39,2013-11-07 21:18:00,
2013-11-07 14:23:00,80.9,25.4,29.98,ENE,58,7.0,10.0,13,0.00,,,0.00,529,WeatherCatV1.11B39,2013-11-07 21:23:00,
2013-11-07 14:28:00,81.0,25.5,29.98,ENE,74,9.0,13.0,13,0.00,,,0.00,517,WeatherCatV1.11B39,2013-11-07 21:28:00,
2013-11-07 14:33:00,81.3,25.8,29.98,NE,41,12.0,17.0,13,0.00,,,0.00,508,WeatherCatV1.11B39,2013-11-07 21:33:00,
2013-11-07 14:38:00,80.7,25.3,29.97,ENE,68,8.0,11.0,13,0.00,,,0.00,492,WeatherCatV1.11B39,2013-11-07 21:38:00,
2013-11-07 14:43:00,80.6,25.2,29.97,NE,49,9.0,14.0,13,0.00,,,0.00,482,WeatherCatV1.11B39,2013-11-07 21:43:00,
2013-11-07 14:48:00,80.2,24.9,29.97,NNE,14,6.0,13.0,13,0.00,,,0.00,469,WeatherCatV1.11B39,2013-11-07 21:48:00,
2013-11-07 14:53:00,80.5,25.1,29.97,East,93,9.0,12.0,13,0.00,,,0.00,455,WeatherCatV1.11B39,2013-11-07 21:53:00,
2013-11-07 14:58:00,80.9,25.4,29.97,NE,39,7.0,8.0,13,0.00,,,0.00,443,WeatherCatV1.11B39,2013-11-07 21:58:00,
2013-11-07 15:03:00,80.8,25.4,29.97,ESE,109,9.0,11.0,13,0.00,,,0.00,431,WeatherCatV1.11B39,2013-11-07 22:03:00,
2013-11-07 15:08:00,81.0,27.3,29.97,ENE,61,9.0,11.0,14,0.00,,,0.00,415,WeatherCatV1.11B39,2013-11-07 22:08:00,
2013-11-07 15:13:00,80.6,25.2,29.97,ENE,58,10.0,11.0,13,0.00,,,0.00,403,WeatherCatV1.11B39,2013-11-07 22:13:00,
2013-11-07 15:18:00,80.6,27.0,29.97,NE,55,7.0,8.0,14,0.00,,,0.00,388,WeatherCatV1.11B39,2013-11-07 22:18:00,
2013-11-07 15:23:00,80.5,26.9,29.97,ENE,68,6.0,12.0,14,0.00,,,0.00,371,WeatherCatV1.11B39,2013-11-07 22:23:00,
2013-11-07 15:28:00,80.1,26.6,29.97,SE,126,8.0,8.0,14,0.00,,,0.00,357,WeatherCatV1.11B39,2013-11-07 22:28:00,
2013-11-07 15:33:00,80.4,26.8,29.97,ENE,64,5.0,9.0,14,0.00,,,0.00,343,WeatherCatV1.11B39,2013-11-07 22:33:00,
2013-11-07 15:38:00,80.5,26.9,29.97,ENE,76,5.0,8.0,14,0.00,,,0.00,327,WeatherCatV1.11B39,2013-11-07 22:38:00,
2013-11-07 15:43:00,80.3,26.8,29.97,ENE,66,4.0,11.0,14,0.00,,,0.00,313,WeatherCatV1.11B39,2013-11-07 22:43:00,
2013-11-07 15:48:00,80.0,26.5,29.97,ENE,66,8.0,10.0,14,0.00,,,0.00,297,WeatherCatV1.11B39,2013-11-07 22:48:00,
2013-11-07 15:53:00,80.1,26.6,29.97,East,94,3.0,11.0,14,0.00,,,0.00,279,WeatherCatV1.11B39,2013-11-07 22:53:00,
2013-11-07 15:58:00,79.8,26.4,29.97,ENE,70,1.0,9.0,14,0.00,,,0.00,264,WeatherCatV1.11B39,2013-11-07 22:58:00,
2013-11-07 16:03:00,79.7,26.3,29.97,ENE,76,9.0,13.0,14,0.00,,,0.00,248,WeatherCatV1.11B39,2013-11-07 23:03:00,
2013-11-07 16:08:00,79.5,26.1,29.96,ENE,76,7.0,10.0,14,0.00,,,0.00,225,WeatherCatV1.11B39,2013-11-07 23:08:00,
2013-11-07 16:13:00,79.3,26.0,29.96,NE,53,9.0,16.0,14,0.00,,,0.00,207,WeatherCatV1.11B39,2013-11-07 23:13:00,
2013-11-07 16:18:00,79.2,25.9,29.96,ENE,61,2.0,11.0,14,0.00,,,0.00,188,WeatherCatV1.11B39,2013-11-07 23:18:00,
2013-11-07 16:23:00,79.1,25.8,29.96,East,86,5.0,11.0,14,0.00,,,0.00,91,WeatherCatV1.11B39,2013-11-07 23:23:00,
2013-11-07 16:28:00,78.9,25.7,29.96,ENE,64,5.0,11.0,14,0.00,,,0.00,54,WeatherCatV1.11B39,2013-11-07 23:28:00,
2013-11-07 16:33:00,78.7,25.5,29.96,ENE,64,9.0,12.0,14,0.00,,,0.00,56,WeatherCatV1.11B39,2013-11-07 23:33:00,
2013-11-07 16:38:00,78.4,25.3,29.96,NE,38,8.0,11.0,14,0.00,,,0.00,62,WeatherCatV1.11B39,2013-11-07 23:38:00,
2013-11-07 16:43:00,78.3,25.2,29.96,NE,44,9.0,10.0,14,0.00,,,0.00,37,WeatherCatV1.11B39,2013-11-07 23:43:00,
2013-11-07 16:48:00,78.1,25.0,29.96,East,89,7.0,9.0,14,0.00,,,0.00,35,WeatherCatV1.11B39,2013-11-07 23:48:00,
2013-11-07 16:53:00,77.9,24.9,29.96,ENE,74,6.0,6.0,14,0.00,,,0.00,26,WeatherCatV1.11B39,2013-11-07 23:53:00,
2013-11-07 16:58:00,77.6,24.6,29.96,East,86,3.0,9.0,14,0.00,,,0.00,30,WeatherCatV1.11B39,2013-11-07 23:58:00,
2013-11-07 17:03:00,77.2,24.3,29.96,East,84,3.0,7.0,14,0.00,,,0.00,18,WeatherCatV1.11B39,2013-11-08 00:03:00,
2013-11-07 17:08:00,76.8,25.6,29.96,ENE,78,2.0,7.0,15,0.00,,,0.00,16,WeatherCatV1.11B39,2013-11-08 00:08:00,
2013-11-07 17:13:00,76.4,25.3,29.96,East,82,2.0,7.0,15,0.00,,,0.00,14,WeatherCatV1.11B39,2013-11-08 00:13:00,
2013-11-07 17:18:00,76.1,25.1,29.96,ENE,64,10.0,10.0,15,0.00,,,0.00,11,WeatherCatV1.11B39,2013-11-08 00:18:00,
2013-11-07 17:23:00,75.9,24.9,29.96,East,82,10.0,10.0,15,0.00,,,0.00,9,WeatherCatV1.11B39,2013-11-08 00:23:00,
2013-11-07 17:28:00,75.7,24.8,29.97,NE,53,11.0,11.0,15,0.00,,,0.00,5,WeatherCatV1.11B39,2013-11-08 00:28:00,
2013-11-07 17:33:00,75.5,24.6,29.97,ENE,64,11.0,13.0,15,0.00,,,0.00,0,WeatherCatV1.11B39,2013-11-08 00:33:00,
2013-11-07 17:38:00,75.2,24.4,29.96,East,90,8.0,10.0,15,0.00,,,0.00,0,WeatherCatV1.11B39,2013-11-08 00:38:00,
2013-11-07 17:43:00,74.9,25.7,29.96,NE,56,8.0,12.0,16,0.00,,,0.00,0,WeatherCatV1.11B39,2013-11-08 00:43:00,
2013-11-07 17:48:00,74.7,25.5,29.97,ENE,61,4.0,15.0,16,0.00,,,0.00,0,WeatherCatV1.11B39,2013-11-08 00:48:00,
2013-11-07 17:53:00,74.5,25.4,29.97,ENE,59,5.0,12.0,16,0.00,,,0.00,0,WeatherCatV1.11B39,2013-11-08 00:53:00,
2013-11-07 17:58:00,74.4,25.3,29.97,East,84,6.0,10.0,16,0.00,,,0.00,0,WeatherCatV1.11B39,2013-11-08 00:58:00,
2013-11-07 18:03:00,74.2,25.1,29.97,ENE,75,3.0,10.0,16,0.00,,,0.00,0,WeatherCatV1.11B39,2013-11-08 01:03:00,
2013-11-07 18:08:00,74.1,25.0,29.97,ENE,69,7.0,9.0,16,0.00,,,0.00,0,WeatherCatV1.11B39,2013-11-08 01:08:00,
2013-11-07 18:13:00,73.9,24.9,29.97,ENE,65,4.0,11.0,16,0.00,,,0.00,0,WeatherCatV1.11B39,2013-11-08 01:13:00,
2013-11-07 18:18:00,73.9,24.9,29.97,ENE,60,4.0,13.0,16,0.00,,,0.00,0,WeatherCatV1.11B39,2013-11-08 01:18:00,
2013-11-07 18:23:00,73.9,24.9,29.97,ENE,73,7.0,9.0,16,0.00,,,0.00,0,WeatherCatV1.11B39,2013-11-08 01:23:00,
2013-11-07 18:28:00,73.7,26.2,29.97,ENE,62,10.0,11.0,17,0.00,,,0.00,0,WeatherCatV1.11B39,2013-11-08 01:28:00,
2013-11-07 18:33:00,73.7,26.2,29.97,NE,55,10.0,10.0,17,0.00,,,0.00,0,WeatherCatV1.11B39,2013-11-08 01:33:00,
2013-11-07 18:38:00,73.6,26.1,29.97,East,80,9.0,13.0,17,0.00,,,0.00,0,WeatherCatV1.11B39,2013-11-08 01:38:00,
2013-11-07 18:43:00,73.5,26.0,29.97,East,82,3.0,13.0,17,0.00,,,0.00,0,WeatherCatV1.11B39,2013-11-08 01:43:00,
2013-11-07 18:48:00,73.5,26.0,29.98,ENE,71,6.0,11.0,17,0.00,,,0.00,0,WeatherCatV1.11B39,2013-11-08 01:48:00,
2013-11-07 18:53:00,73.3,25.9,29.98,ENE,72,7.0,9.0,17,0.00,,,0.00,0,WeatherCatV1.11B39,2013-11-08 01:53:00,
2013-11-07 18:58:00,73.2,25.8,29.97,ENE,68,5.0,11.0,17,0.00,,,0.00,0,WeatherCatV1.11B39,2013-11-08 01:58:00,
2013-11-07 19:03:00,73.3,25.9,29.98,ENE,68,8.0,17.0,17,0.00,,,0.00,0,WeatherCatV1.11B39,2013-11-08 02:03:00,
2013-11-07 19:08:00,73.2,25.8,29.98,East,91,2.0,7.0,17,0.00,,,0.00,0,WeatherCatV1.11B39,2013-11-08 02:08:00,
2013-11-07 19:13:00,73.0,25.6,29.98,ENE,57,4.0,9.0,17,0.00,,,0.00,0,WeatherCatV1.11B39,2013-11-08 02:13:00,
2013-11-07 19:18:00,73.0,25.6,29.98,ENE,67,7.0,12.0,17,0.00,,,0.00,0,WeatherCatV1.11B39,2013-11-08 02:18:00,
2013-11-07 19:23:00,72.9,25.5,29.98,ENE,68,9.0,10.0,17,0.00,,,0.00,0,WeatherCatV1.11B39,2013-11-08 02:23:00,
2013-11-07 19:28:00,72.8,25.4,29.98,East,95,7.0,13.0,17,0.00,,,0.00,0,WeatherCatV1.11B39,2013-11-08 02:28:00,
2013-11-07 19:33:00,72.7,26.7,29.98,East,95,1.0,9.0,18,0.00,,,0.00,0,WeatherCatV1.11B39,2013-11-08 02:33:00,
2013-11-07 19:38:00,72.4,26.5,29.98,ENE,78,5.0,6.0,18,0.00,,,0.00,0,WeatherCatV1.11B39,2013-11-08 02:38:00,
2013-11-07 19:43:00,72.0,26.2,29.98,ESE,107,3.0,3.0,18,0.00,,,0.00,0,WeatherCatV1.11B39,2013-11-08 02:43:00,
2013-11-07 19:48:00,71.6,27.2,29.98,East,84,8.0,8.0,19,0.00,,,0.00,0,WeatherCatV1.11B39,2013-11-08 02:48:00,
2013-11-07 19:53:00,71.5,27.1,29.98,ESE,107,3.0,7.0,19,0.00,,,0.00,0,WeatherCatV1.11B39,2013-11-08 02:53:00,
2013-11-07 19:58:00,71.6,27.2,29.98,East,85,5.0,8.0,19,0.00,,,0.00,0,WeatherCatV1.11B39,2013-11-08 02:58:00,
2013-11-07 20:03:00,71.7,27.2,29.98,East,81,6.0,7.0,19,0.00,,,0.00,0,WeatherCatV1.11B39,2013-11-08 03:03:00,
2013-11-07 20:08:00,71.6,27.2,29.98,SE,129,5.0,7.0,19,0.00,,,0.00,0,WeatherCatV1.11B39,2013-11-08 03:08:00,
2013-11-07 20:13:00,71.5,27.1,29.98,East,82,5.0,7.0,19,0.00,,,0.00,0,WeatherCatV1.11B39,2013-11-08 03:13:00,
2013-11-07 20:18:00,71.5,27.1,29.98,ESE,103,3.0,4.0,19,0.00,,,0.00,0,WeatherCatV1.11B39,2013-11-08 03:18:00,
2013-11-07 20:23:00,71.2,26.8,29.98,East,100,2.0,6.0,19,0.00,,,0.00,0,WeatherCatV1.11B39,2013-11-08 03:23:00,
2013-11-07 20:28:00,71.2,26.8,29.98,East,79,7.0,9.0,19,0.00,,,0.00,0,WeatherCatV1.11B39,2013-11-08 03:28:00,
2013-11-07 20:33:00,71.2,26.8,29.98,ESE,110,4.0,4.0,19,0.00,,,0.00,0,WeatherCatV1.11B39,2013-11-08 03:33:00,
2013-11-07 20:38:00,71.2,26.8,29.98,SE,130,3.0,6.0,19,0.00,,,0.00,0,WeatherCatV1.11B39,2013-11-08 03:38:00,
2013-11-07 20:43:00,70.8,26.5,29.98,ESE,103,1.0,7.0,19,0.00,,,0.00,0,WeatherCatV1.11B39,2013-11-08 03:43:00,
2013-11-07 20:48:00,70.9,26.6,29.98,ESE,110,3.0,9.0,19,0.00,,,0.00,0,WeatherCatV1.11B39,2013-11-08 03:48:00,
2013-11-07 20:53:00,71.0,26.7,29.98,East,97,3.0,7.0,19,0.00,,,0.00,0,WeatherCatV1.11B39,2013-11-08 03:53:00,
2013-11-07 20:58:00,71.0,27.9,29.98,East,98,1.0,3.0,20,0.00,,,0.00,0,WeatherCatV1.11B39,2013-11-08 03:58:00,
2013-11-07 21:03:00,70.8,27.7,29.98,East,97,1.0,4.0,20,0.00,,,0.00,0,WeatherCatV1.11B39,2013-11-08 04:03:00,
2013-11-07 21:08:00,70.7,27.7,29.98,East,88,5.0,8.0,20,0.00,,,0.00,0,WeatherCatV1.11B39,2013-11-08 04:08:00,
2013-11-07 21:13:00,70.8,27.7,29.98,East,89,6.0,7.0,20,0.00,,,0.00,0,WeatherCatV1.11B39,2013-11-08 04:13:00,
2013-11-07 21:18:00,70.9,27.8,29.98,East,94,1.0,9.0,20,0.00,,,0.00,0,WeatherCatV1.11B39,2013-11-08 04:18:00,
2013-11-07 21:23:00,71.0,27.9,29.98,East,85,2.0,8.0,20,0.00,,,0.00,0,WeatherCatV1.11B39,2013-11-08 04:23:00,
2013-11-07 21:28:00,71.0,27.9,29.99,East,101,2.0,6.0,20,0.00,,,0.00,0,WeatherCatV1.11B39,2013-11-08 04:28:00,
2013-11-07 21:33:00,71.0,27.9,29.98,ESE,108,4.0,4.0,20,0.00,,,0.00,0,WeatherCatV1.11B39,2013-11-08 04:33:00,
2013-11-07 21:38:00,70.9,27.8,29.99,ESE,102,5.0,7.0,20,0.00,,,0.00,0,WeatherCatV1.11B39,2013-11-08 04:38:00,
2013-11-07 21:43:00,70.8,27.7,29.99,East,99,7.0,8.0,20,0.00,,,0.00,0,WeatherCatV1.11B39,2013-11-08 04:43:00,
2013-11-07 21:48:00,71.0,27.9,29.99,East,94,4.0,10.0,20,0.00,,,0.00,0,WeatherCatV1.11B39,2013-11-08 04:48:00,
2013-11-07 21:53:00,71.0,27.9,29.99,East,99,4.0,7.0,20,0.00,,,0.00,0,WeatherCatV1.11B39,2013-11-08 04:53:00,
2013-11-07 21:58:00,71.0,27.9,29.99,ESE,102,2.0,8.0,20,0.00,,,0.00,0,WeatherCatV1.11B39,2013-11-08 04:58:00,
2013-11-07 22:01:00,70.9,27.8,29.99,East,97,2.0,6.0,20,0.00,,,0.00,0,WeatherCatV1.11B39,2013-11-08 05:01:00,
2013-11-07 22:06:00,70.8,28.9,29.99,East,81,3.0,8.0,21,0.00,,,0.00,0,WeatherCatV1.11B39,2013-11-08 05:06:00,
2013-11-07 22:11:00,70.8,28.9,29.99,East,91,7.0,9.0,21,0.00,,,0.00,0,WeatherCatV1.11B39,2013-11-08 05:11:00,
2013-11-07 22:16:00,70.8,28.9,29.99,ENE,72,5.0,11.0,21,0.00,,,0.00,0,WeatherCatV1.11B39,2013-11-08 05:16:00,
2013-11-07 22:21:00,70.8,28.9,29.99,East,87,6.0,9.0,21,0.00,,,0.00,0,WeatherCatV1.11B39,2013-11-08 05:21:00,
2013-11-07 22:26:00,71.0,29.1,29.99,East,93,7.0,9.0,21,0.00,,,0.00,0,WeatherCatV1.11B39,2013-11-08 05:26:00,
2013-11-07 22:31:00,70.9,29.0,29.99,ESE,112,3.0,10.0,21,0.00,,,0.00,0,WeatherCatV1.11B39,2013-11-08 05:31:00,
2013-11-07 22:36:00,70.5,28.7,29.99,East,101,3.0,5.0,21,0.00,,,0.00,0,WeatherCatV1.11B39,2013-11-08 05:36:00,
2013-11-07 22:41:00,70.2,28.4,29.99,ESE,115,2.0,4.0,21,0.00,,,0.00,0,WeatherCatV1.11B39,2013-11-08 05:41:00,
2013-11-07 22:46:00,70.1,29.5,29.99,ESE,110,5.0,5.0,22,0.00,,,0.00,0,WeatherCatV1.11B39,2013-11-08 05:46:00,
2013-11-07 22:51:00,69.8,29.2,29.99,ESE,118,4.0,9.0,22,0.00,,,0.00,0,WeatherCatV1.11B39,2013-11-08 05:51:00,
2013-11-07 22:56:00,69.3,28.8,29.99,ESE,121,2.0,5.0,22,0.00,,,0.00,0,WeatherCatV1.11B39,2013-11-08 05:56:00,
2013-11-07 23:01:00,68.6,29.3,29.99,ESE,107,2.0,7.0,23,0.00,,,0.00,0,WeatherCatV1.11B39,2013-11-08 06:01:00,
2013-11-07 23:06:00,68.3,29.1,29.99,ESE,116,2.0,7.0,23,0.00,,,0.00,0,WeatherCatV1.11B39,2013-11-08 06:06:00,
2013-11-07 23:11:00,68.3,29.1,29.99,East,101,7.0,7.0,23,0.00,,,0.00,0,WeatherCatV1.11B39,2013-11-08 06:11:00,
2013-11-07 23:16:00,68.4,29.2,29.99,ESE,112,2.0,4.0,23,0.00,,,0.00,0,WeatherCatV1.11B39,2013-11-08 06:16:00,
2013-11-07 23:21:00,68.2,29.0,29.99,ESE,111,5.0,11.0,23,0.00,,,0.00,0,WeatherCatV1.11B39,2013-11-08 06:21:00,
2013-11-07 23:26:00,68.1,28.9,29.99,East,95,1.0,5.0,23,0.00,,,0.00,0,WeatherCatV1.11B39,2013-11-08 06:26:00,
2013-11-07 23:31:00,67.7,28.6,29.99,ESE,108,5.0,8.0,23,0.00,,,0.00,0,WeatherCatV1.11B39,2013-11-08 06:31:00,
2013-11-07 23:36:00,67.6,29.5,29.99,ESE,104,2.0,7.0,24,0.00,,,0.00,0,WeatherCatV1.11B39,2013-11-08 06:36:00,
2013-11-07 23:41:00,67.5,29.4,29.98,ESE,108,7.0,7.0,24,0.00,,,0.00,0,WeatherCatV1.11B39,2013-11-08 06:41:00,
2013-11-07 23:46:00,67.4,29.4,29.98,ESE,118,2.0,7.0,24,0.00,,,0.00,0,WeatherCatV1.11B39,2013-11-08 06:46:00,
2013-11-07 23:51:00,67.2,29.2,29.98,East,101,4.0,7.0,24,0.00,,,0.00,0,WeatherCatV1.11B39,2013-11-08 06:51:00,
2013-11-07 23:56:00,67.2,29.2,29.98,SE,136,4.0,9.0,24,0.00,,,0.00,0,WeatherCatV1.11B39,2013-11-08 06:56:00,